sensor_id;sensor_type;location;lat;lon;timestamp;temperature;humidity
21592;DHT22;10958;50.892;3.992;2023-03-14T00:01:24;10.90;99.90
21592;DHT22;10958;50.892;3.992;2023-03-14T00:03:50;10.90;99.90
21592;DHT22;10958;50.892;3.992;2023-03-14T00:06:17;10.90;99.90
21592;DHT22;10958;50.892;3.992;2023-03-14T00:08:46;10.80;99.90
21592;DHT22;10958;50.892;3.992;2023-03-14T00:11:15;10.80;99.90
21592;DHT22;10958;50.892;3.992;2023-03-14T00:13:41;10.80;99.90
21592;DHT22;10958;50.892;3.992;2023-03-14T00:16:10;10.80;99.90
21592;DHT22;10958;50.892;3.992;2023-03-14T00:18:37;10.80;99.90
21592;DHT22;10958;50.892;3.992;2023-03-14T00:21:04;10.80;99.90
21592;DHT22;10958;50.892;3.992;2023-03-14T00:23:31;10.80;99.90
21592;DHT22;10958;50.892;3.992;2023-03-14T00:26:18;10.80;99.90
21592;DHT22;10958;50.892;3.992;2023-03-14T00:28:44;10.80;99.90
21592;DHT22;10958;50.892;3.992;2023-03-14T00:31:13;10.80;99.90
21592;DHT22;10958;50.892;3.992;2023-03-14T00:33:39;10.80;99.90
21592;DHT22;10958;50.892;3.992;2023-03-14T00:36:07;10.80;99.90
21592;DHT22;10958;50.892;3.992;2023-03-14T00:38:38;10.80;99.90
21592;DHT22;10958;50.892;3.992;2023-03-14T00:41:09;10.70;99.90
21592;DHT22;10958;50.892;3.992;2023-03-14T00:43:35;10.70;99.90
21592;DHT22;10958;50.892;3.992;2023-03-14T00:46:02;10.60;99.90
21592;DHT22;10958;50.892;3.992;2023-03-14T00:48:28;10.60;99.90
21592;DHT22;10958;50.892;3.992;2023-03-14T00:50:56;10.50;99.90
21592;DHT22;10958;50.892;3.992;2023-03-14T00:53:22;10.50;99.90
21592;DHT22;10958;50.892;3.992;2023-03-14T00:55:48;10.40;99.90
21592;DHT22;10958;50.892;3.992;2023-03-14T00:58:15;10.40;99.90
21592;DHT22;10958;50.892;3.992;2023-03-14T01:00:42;10.40;99.90
21592;DHT22;10958;50.892;3.992;2023-03-14T01:03:09;10.40;99.90
21592;DHT22;10958;50.892;3.992;2023-03-14T01:05:35;10.40;99.90
21592;DHT22;10958;50.892;3.992;2023-03-14T01:08:04;10.30;99.90
21592;DHT22;10958;50.892;3.992;2023-03-14T01:10:30;10.30;99.90
21592;DHT22;10958;50.892;3.992;2023-03-14T01:12:56;10.40;99.90
21592;DHT22;10958;50.892;3.992;2023-03-14T01:15:22;10.40;99.90
21592;DHT22;10958;50.892;3.992;2023-03-14T01:17:47;10.30;99.90
21592;DHT22;10958;50.892;3.992;2023-03-14T01:20:14;10.20;99.90
21592;DHT22;10958;50.892;3.992;2023-03-14T01:22:41;10.20;99.90
21592;DHT22;10958;50.892;3.992;2023-03-14T01:25:10;10.20;99.90
21592;DHT22;10958;50.892;3.992;2023-03-14T01:27:36;10.30;99.90
21592;DHT22;10958;50.892;3.992;2023-03-14T01:30:03;10.30;99.90
21592;DHT22;10958;50.892;3.992;2023-03-14T01:32:31;10.40;99.90
21592;DHT22;10958;50.892;3.992;2023-03-14T01:34:58;10.40;99.90
21592;DHT22;10958;50.892;3.992;2023-03-14T01:37:23;10.40;99.90
21592;DHT22;10958;50.892;3.992;2023-03-14T01:39:49;10.40;99.90
21592;DHT22;10958;50.892;3.992;2023-03-14T01:42:15;10.50;99.90
21592;DHT22;10958;50.892;3.992;2023-03-14T01:44:59;10.40;99.90
21592;DHT22;10958;50.892;3.992;2023-03-14T01:47:27;10.50;99.90
21592;DHT22;10958;50.892;3.992;2023-03-14T01:50:00;10.50;99.90
21592;DHT22;10958;50.892;3.992;2023-03-14T01:52:31;10.60;99.90
21592;DHT22;10958;50.892;3.992;2023-03-14T01:55:20;10.50;99.90
21592;DHT22;10958;50.892;3.992;2023-03-14T01:57:56;10.50;99.90
21592;DHT22;10958;50.892;3.992;2023-03-14T02:00:24;10.40;99.90
21592;DHT22;10958;50.892;3.992;2023-03-14T02:03:00;10.40;99.90
21592;DHT22;10958;50.892;3.992;2023-03-14T02:05:30;10.40;99.90
21592;DHT22;10958;50.892;3.992;2023-03-14T02:08:02;10.30;99.90
21592;DHT22;10958;50.892;3.992;2023-03-14T02:10:31;10.40;99.90
21592;DHT22;10958;50.892;3.992;2023-03-14T02:13:03;10.40;99.90
21592;DHT22;10958;50.892;3.992;2023-03-14T02:15:32;10.40;99.90
21592;DHT22;10958;50.892;3.992;2023-03-14T02:17:58;10.30;99.90
21592;DHT22;10958;50.892;3.992;2023-03-14T02:20:35;10.40;99.90
21592;DHT22;10958;50.892;3.992;2023-03-14T02:23:02;10.40;99.90
21592;DHT22;10958;50.892;3.992;2023-03-14T02:25:34;10.40;99.90
21592;DHT22;10958;50.892;3.992;2023-03-14T02:28:04;10.30;99.90
21592;DHT22;10958;50.892;3.992;2023-03-14T02:30:31;10.30;99.90
21592;DHT22;10958;50.892;3.992;2023-03-14T02:33:06;10.30;99.90
21592;DHT22;10958;50.892;3.992;2023-03-14T02:35:37;10.30;99.90
21592;DHT22;10958;50.892;3.992;2023-03-14T02:38:09;10.20;99.90
21592;DHT22;10958;50.892;3.992;2023-03-14T02:40:37;10.20;99.90
21592;DHT22;10958;50.892;3.992;2023-03-14T02:43:03;10.20;99.90
21592;DHT22;10958;50.892;3.992;2023-03-14T02:45:40;10.30;99.90
21592;DHT22;10958;50.892;3.992;2023-03-14T02:48:11;10.20;99.90
21592;DHT22;10958;50.892;3.992;2023-03-14T02:50:37;10.20;99.90
21592;DHT22;10958;50.892;3.992;2023-03-14T02:53:03;10.30;99.90
21592;DHT22;10958;50.892;3.992;2023-03-14T02:55:32;10.30;99.90
21592;DHT22;10958;50.892;3.992;2023-03-14T02:57:58;10.20;99.90
21592;DHT22;10958;50.892;3.992;2023-03-14T03:00:24;10.30;99.90
21592;DHT22;10958;50.892;3.992;2023-03-14T03:02:50;10.20;99.90
21592;DHT22;10958;50.892;3.992;2023-03-14T03:05:16;10.30;99.90
21592;DHT22;10958;50.892;3.992;2023-03-14T03:07:41;10.20;99.90
21592;DHT22;10958;50.892;3.992;2023-03-14T03:10:08;10.20;99.90
21592;DHT22;10958;50.892;3.992;2023-03-14T03:12:34;10.20;99.90
21592;DHT22;10958;50.892;3.992;2023-03-14T03:15:00;10.30;99.90
21592;DHT22;10958;50.892;3.992;2023-03-14T03:17:26;10.30;99.90
21592;DHT22;10958;50.892;3.992;2023-03-14T03:19:52;10.30;99.90
21592;DHT22;10958;50.892;3.992;2023-03-14T03:22:17;10.20;99.90
21592;DHT22;10958;50.892;3.992;2023-03-14T03:24:43;10.20;99.90
21592;DHT22;10958;50.892;3.992;2023-03-14T03:27:09;10.20;99.90
21592;DHT22;10958;50.892;3.992;2023-03-14T03:29:35;10.30;99.90
21592;DHT22;10958;50.892;3.992;2023-03-14T03:32:01;10.40;99.90
21592;DHT22;10958;50.892;3.992;2023-03-14T03:34:27;10.30;99.90
21592;DHT22;10958;50.892;3.992;2023-03-14T03:36:56;10.30;99.90
21592;DHT22;10958;50.892;3.992;2023-03-14T03:39:22;10.30;99.90
21592;DHT22;10958;50.892;3.992;2023-03-14T03:41:47;10.30;99.90
21592;DHT22;10958;50.892;3.992;2023-03-14T03:44:13;10.30;99.90
21592;DHT22;10958;50.892;3.992;2023-03-14T03:46:39;10.30;99.90
21592;DHT22;10958;50.892;3.992;2023-03-14T03:49:05;10.30;99.90
21592;DHT22;10958;50.892;3.992;2023-03-14T03:51:31;10.30;99.90
21592;DHT22;10958;50.892;3.992;2023-03-14T03:53:57;10.30;99.90
21592;DHT22;10958;50.892;3.992;2023-03-14T03:56:22;10.30;99.90
21592;DHT22;10958;50.892;3.992;2023-03-14T03:58:48;10.40;99.90
21592;DHT22;10958;50.892;3.992;2023-03-14T04:01:14;10.50;99.90
21592;DHT22;10958;50.892;3.992;2023-03-14T04:03:39;10.40;99.90
21592;DHT22;10958;50.892;3.992;2023-03-14T04:06:11;10.40;99.90
21592;DHT22;10958;50.892;3.992;2023-03-14T04:08:37;10.40;99.90
21592;DHT22;10958;50.892;3.992;2023-03-14T04:11:04;10.40;99.90
21592;DHT22;10958;50.892;3.992;2023-03-14T04:13:30;10.50;99.90
21592;DHT22;10958;50.892;3.992;2023-03-14T04:15:56;10.50;99.90
21592;DHT22;10958;50.892;3.992;2023-03-14T04:18:23;10.50;99.90
21592;DHT22;10958;50.892;3.992;2023-03-14T04:20:58;10.50;99.90
21592;DHT22;10958;50.892;3.992;2023-03-14T04:23:24;10.50;99.90
21592;DHT22;10958;50.892;3.992;2023-03-14T04:25:52;10.50;99.90
21592;DHT22;10958;50.892;3.992;2023-03-14T04:28:18;10.50;99.90
21592;DHT22;10958;50.892;3.992;2023-03-14T04:30:44;10.50;99.90
21592;DHT22;10958;50.892;3.992;2023-03-14T04:33:09;10.50;99.90
21592;DHT22;10958;50.892;3.992;2023-03-14T04:35:36;10.40;99.90
21592;DHT22;10958;50.892;3.992;2023-03-14T04:38:04;10.50;99.90
21592;DHT22;10958;50.892;3.992;2023-03-14T04:40:32;10.50;99.90
21592;DHT22;10958;50.892;3.992;2023-03-14T04:42:57;10.50;99.90
21592;DHT22;10958;50.892;3.992;2023-03-14T04:45:23;10.50;99.90
21592;DHT22;10958;50.892;3.992;2023-03-14T04:47:49;10.50;99.90
21592;DHT22;10958;50.892;3.992;2023-03-14T04:50:14;10.60;99.90
21592;DHT22;10958;50.892;3.992;2023-03-14T04:52:40;10.50;99.90
21592;DHT22;10958;50.892;3.992;2023-03-14T04:55:06;10.50;99.90
21592;DHT22;10958;50.892;3.992;2023-03-14T04:57:32;10.50;99.90
21592;DHT22;10958;50.892;3.992;2023-03-14T04:59:57;10.40;99.90
21592;DHT22;10958;50.892;3.992;2023-03-14T05:02:23;10.50;99.90
21592;DHT22;10958;50.892;3.992;2023-03-14T05:04:48;10.60;99.90
21592;DHT22;10958;50.892;3.992;2023-03-14T05:07:15;10.50;99.90
21592;DHT22;10958;50.892;3.992;2023-03-14T05:09:40;10.50;99.90
21592;DHT22;10958;50.892;3.992;2023-03-14T05:12:08;10.50;99.90
21592;DHT22;10958;50.892;3.992;2023-03-14T05:14:34;10.40;99.90
21592;DHT22;10958;50.892;3.992;2023-03-14T05:16:59;10.40;99.90
21592;DHT22;10958;50.892;3.992;2023-03-14T05:19:25;10.50;99.90
21592;DHT22;10958;50.892;3.992;2023-03-14T05:21:51;10.50;99.90
21592;DHT22;10958;50.892;3.992;2023-03-14T05:24:16;10.50;99.90
21592;DHT22;10958;50.892;3.992;2023-03-14T05:26:42;10.60;99.90
21592;DHT22;10958;50.892;3.992;2023-03-14T05:29:08;10.50;99.90
21592;DHT22;10958;50.892;3.992;2023-03-14T05:31:33;10.50;99.90
21592;DHT22;10958;50.892;3.992;2023-03-14T05:33:59;10.50;99.90
21592;DHT22;10958;50.892;3.992;2023-03-14T05:36:24;10.50;99.90
21592;DHT22;10958;50.892;3.992;2023-03-14T05:38:51;10.50;99.90
21592;DHT22;10958;50.892;3.992;2023-03-14T05:41:16;10.50;99.90
21592;DHT22;10958;50.892;3.992;2023-03-14T05:43:44;10.60;99.90
21592;DHT22;10958;50.892;3.992;2023-03-14T05:46:12;10.50;99.90
21592;DHT22;10958;50.892;3.992;2023-03-14T05:48:38;10.50;99.90
21592;DHT22;10958;50.892;3.992;2023-03-14T05:51:04;10.60;99.90
21592;DHT22;10958;50.892;3.992;2023-03-14T05:53:30;10.60;99.90
21592;DHT22;10958;50.892;3.992;2023-03-14T05:55:56;10.70;99.90
21592;DHT22;10958;50.892;3.992;2023-03-14T05:58:23;10.60;99.90
21592;DHT22;10958;50.892;3.992;2023-03-14T06:00:49;10.50;99.90
21592;DHT22;10958;50.892;3.992;2023-03-14T06:03:17;10.40;99.90
21592;DHT22;10958;50.892;3.992;2023-03-14T06:05:43;10.50;99.90
21592;DHT22;10958;50.892;3.992;2023-03-14T06:08:09;10.40;99.90
21592;DHT22;10958;50.892;3.992;2023-03-14T06:10:36;10.30;99.90
21592;DHT22;10958;50.892;3.992;2023-03-14T06:13:05;10.30;99.90
21592;DHT22;10958;50.892;3.992;2023-03-14T06:15:33;10.40;99.90
21592;DHT22;10958;50.892;3.992;2023-03-14T06:18:00;9.80;99.90
21592;DHT22;10958;50.892;3.992;2023-03-14T06:20:26;9.10;99.90
21592;DHT22;10958;50.892;3.992;2023-03-14T06:22:51;8.70;99.90
21592;DHT22;10958;50.892;3.992;2023-03-14T06:25:20;8.50;99.90
21592;DHT22;10958;50.892;3.992;2023-03-14T06:27:46;8.40;99.90
21592;DHT22;10958;50.892;3.992;2023-03-14T06:30:11;8.30;99.90
21592;DHT22;10958;50.892;3.992;2023-03-14T06:32:40;8.20;99.90
21592;DHT22;10958;50.892;3.992;2023-03-14T06:35:06;8.20;99.90
21592;DHT22;10958;50.892;3.992;2023-03-14T06:37:31;8.30;99.90
21592;DHT22;10958;50.892;3.992;2023-03-14T06:40:00;8.10;99.90
21592;DHT22;10958;50.892;3.992;2023-03-14T06:42:27;8.00;99.90
21592;DHT22;10958;50.892;3.992;2023-03-14T06:44:52;7.80;99.90
21592;DHT22;10958;50.892;3.992;2023-03-14T06:47:21;7.70;99.90
21592;DHT22;10958;50.892;3.992;2023-03-14T06:49:47;7.50;99.90
21592;DHT22;10958;50.892;3.992;2023-03-14T06:52:12;7.40;99.90
21592;DHT22;10958;50.892;3.992;2023-03-14T06:54:39;7.40;99.90
21592;DHT22;10958;50.892;3.992;2023-03-14T06:57:04;7.40;99.90
21592;DHT22;10958;50.892;3.992;2023-03-14T06:59:30;7.30;99.90
21592;DHT22;10958;50.892;3.992;2023-03-14T07:01:56;7.30;99.90
21592;DHT22;10958;50.892;3.992;2023-03-14T07:04:21;7.30;99.90
21592;DHT22;10958;50.892;3.992;2023-03-14T07:06:47;7.30;99.90
21592;DHT22;10958;50.892;3.992;2023-03-14T07:09:14;7.40;99.90
21592;DHT22;10958;50.892;3.992;2023-03-14T07:11:43;7.40;99.90
21592;DHT22;10958;50.892;3.992;2023-03-14T07:14:09;7.30;99.90
21592;DHT22;10958;50.892;3.992;2023-03-14T07:16:35;7.30;99.90
21592;DHT22;10958;50.892;3.992;2023-03-14T07:19:01;7.20;99.90
21592;DHT22;10958;50.892;3.992;2023-03-14T07:21:27;7.30;99.90
21592;DHT22;10958;50.892;3.992;2023-03-14T07:23:53;7.30;99.90
21592;DHT22;10958;50.892;3.992;2023-03-14T07:26:21;7.30;99.90
21592;DHT22;10958;50.892;3.992;2023-03-14T07:28:47;7.40;99.90
21592;DHT22;10958;50.892;3.992;2023-03-14T07:31:17;7.40;99.90
21592;DHT22;10958;50.892;3.992;2023-03-14T07:33:43;7.50;99.90
21592;DHT22;10958;50.892;3.992;2023-03-14T07:36:09;7.50;99.90
21592;DHT22;10958;50.892;3.992;2023-03-14T07:38:35;7.50;99.90
21592;DHT22;10958;50.892;3.992;2023-03-14T07:41:05;7.40;99.90
21592;DHT22;10958;50.892;3.992;2023-03-14T07:43:32;7.50;99.90
21592;DHT22;10958;50.892;3.992;2023-03-14T07:45:58;7.50;99.90
21592;DHT22;10958;50.892;3.992;2023-03-14T07:48:26;7.40;99.90
21592;DHT22;10958;50.892;3.992;2023-03-14T07:50:53;7.50;99.90
21592;DHT22;10958;50.892;3.992;2023-03-14T07:53:20;7.60;99.90
21592;DHT22;10958;50.892;3.992;2023-03-14T07:55:46;7.70;99.90
21592;DHT22;10958;50.892;3.992;2023-03-14T07:58:13;7.70;99.90
21592;DHT22;10958;50.892;3.992;2023-03-14T08:00:39;7.80;99.90
21592;DHT22;10958;50.892;3.992;2023-03-14T08:03:05;7.90;99.90
21592;DHT22;10958;50.892;3.992;2023-03-14T08:05:35;7.90;99.90
21592;DHT22;10958;50.892;3.992;2023-03-14T08:08:03;7.90;99.90
21592;DHT22;10958;50.892;3.992;2023-03-14T08:10:29;7.80;99.90
21592;DHT22;10958;50.892;3.992;2023-03-14T08:12:56;7.70;99.90
21592;DHT22;10958;50.892;3.992;2023-03-14T08:15:23;7.40;99.90
21592;DHT22;10958;50.892;3.992;2023-03-14T08:17:50;7.30;99.90
21592;DHT22;10958;50.892;3.992;2023-03-14T08:20:21;7.30;99.90
21592;DHT22;10958;50.892;3.992;2023-03-14T08:22:47;7.30;99.90
21592;DHT22;10958;50.892;3.992;2023-03-14T08:25:14;7.30;99.90
21592;DHT22;10958;50.892;3.992;2023-03-14T08:27:40;7.30;99.90
21592;DHT22;10958;50.892;3.992;2023-03-14T08:30:09;7.30;99.90
21592;DHT22;10958;50.892;3.992;2023-03-14T08:32:35;7.30;99.90
21592;DHT22;10958;50.892;3.992;2023-03-14T08:35:02;7.30;99.90
21592;DHT22;10958;50.892;3.992;2023-03-14T08:37:28;7.30;99.90
21592;DHT22;10958;50.892;3.992;2023-03-14T08:39:54;7.20;99.90
21592;DHT22;10958;50.892;3.992;2023-03-14T08:42:20;7.20;99.90
21592;DHT22;10958;50.892;3.992;2023-03-14T08:44:45;7.00;99.90
21592;DHT22;10958;50.892;3.992;2023-03-14T08:47:11;7.00;99.90
21592;DHT22;10958;50.892;3.992;2023-03-14T08:49:37;7.00;99.90
21592;DHT22;10958;50.892;3.992;2023-03-14T08:52:04;6.80;99.90
21592;DHT22;10958;50.892;3.992;2023-03-14T08:54:30;6.80;99.90
21592;DHT22;10958;50.892;3.992;2023-03-14T08:56:57;6.70;99.90
21592;DHT22;10958;50.892;3.992;2023-03-14T08:59:23;6.70;99.90
21592;DHT22;10958;50.892;3.992;2023-03-14T09:01:49;6.80;99.90
21592;DHT22;10958;50.892;3.992;2023-03-14T09:04:15;6.90;99.90
21592;DHT22;10958;50.892;3.992;2023-03-14T09:06:43;6.90;99.90
21592;DHT22;10958;50.892;3.992;2023-03-14T09:09:11;7.00;99.90
21592;DHT22;10958;50.892;3.992;2023-03-14T09:11:38;7.00;99.90
21592;DHT22;10958;50.892;3.992;2023-03-14T09:14:05;7.20;99.90
21592;DHT22;10958;50.892;3.992;2023-03-14T09:16:30;7.30;99.90
21592;DHT22;10958;50.892;3.992;2023-03-14T09:18:56;7.20;99.90
21592;DHT22;10958;50.892;3.992;2023-03-14T09:21:25;7.20;99.90
21592;DHT22;10958;50.892;3.992;2023-03-14T09:23:51;7.10;99.90
21592;DHT22;10958;50.892;3.992;2023-03-14T09:26:17;7.20;99.90
21592;DHT22;10958;50.892;3.992;2023-03-14T09:28:43;7.30;99.90
21592;DHT22;10958;50.892;3.992;2023-03-14T09:31:10;7.10;99.90
21592;DHT22;10958;50.892;3.992;2023-03-14T09:33:37;7.10;99.90
21592;DHT22;10958;50.892;3.992;2023-03-14T09:36:04;7.10;99.90
21592;DHT22;10958;50.892;3.992;2023-03-14T09:38:30;7.20;99.90
21592;DHT22;10958;50.892;3.992;2023-03-14T09:41:00;7.40;99.90
21592;DHT22;10958;50.892;3.992;2023-03-14T09:43:29;7.40;99.90
21592;DHT22;10958;50.892;3.992;2023-03-14T09:45:56;7.40;99.90
21592;DHT22;10958;50.892;3.992;2023-03-14T09:48:29;7.60;99.90
21592;DHT22;10958;50.892;3.992;2023-03-14T09:50:58;7.60;99.90
21592;DHT22;10958;50.892;3.992;2023-03-14T09:53:27;7.70;99.90
21592;DHT22;10958;50.892;3.992;2023-03-14T09:55:54;7.90;99.90
21592;DHT22;10958;50.892;3.992;2023-03-14T09:58:23;7.90;99.90
21592;DHT22;10958;50.892;3.992;2023-03-14T10:00:52;7.80;99.90
21592;DHT22;10958;50.892;3.992;2023-03-14T10:03:44;8.00;99.90
21592;DHT22;10958;50.892;3.992;2023-03-14T10:06:13;8.10;99.90
21592;DHT22;10958;50.892;3.992;2023-03-14T10:08:41;7.90;99.90
21592;DHT22;10958;50.892;3.992;2023-03-14T10:11:16;7.80;99.90
21592;DHT22;10958;50.892;3.992;2023-03-14T10:16:33;7.60;99.90
21592;DHT22;10958;50.892;3.992;2023-03-14T10:19:09;7.50;99.90
21592;DHT22;10958;50.892;3.992;2023-03-14T10:21:38;7.50;99.90
21592;DHT22;10958;50.892;3.992;2023-03-14T10:24:18;7.40;99.90
21592;DHT22;10958;50.892;3.992;2023-03-14T10:26:48;7.30;99.90
21592;DHT22;10958;50.892;3.992;2023-03-14T10:29:15;7.20;99.90
21592;DHT22;10958;50.892;3.992;2023-03-14T10:32:00;7.20;99.90
21592;DHT22;10958;50.892;3.992;2023-03-14T10:34:30;7.20;99.90
21592;DHT22;10958;50.892;3.992;2023-03-14T10:37:04;7.20;99.90
21592;DHT22;10958;50.892;3.992;2023-03-14T10:39:52;7.20;99.90
21592;DHT22;10958;50.892;3.992;2023-03-14T10:42:25;7.20;99.90
21592;DHT22;10958;50.892;3.992;2023-03-14T10:44:57;7.00;99.90
21592;DHT22;10958;50.892;3.992;2023-03-14T10:47:25;6.90;99.90
21592;DHT22;10958;50.892;3.992;2023-03-14T10:49:51;6.70;99.90
21592;DHT22;10958;50.892;3.992;2023-03-14T10:52:28;6.60;99.90
21592;DHT22;10958;50.892;3.992;2023-03-14T10:55:01;6.60;99.90
21592;DHT22;10958;50.892;3.992;2023-03-14T10:57:28;6.40;99.90
21592;DHT22;10958;50.892;3.992;2023-03-14T10:59:55;6.30;99.90
21592;DHT22;10958;50.892;3.992;2023-03-14T11:03:38;6.40;99.90
21592;DHT22;10958;50.892;3.992;2023-03-14T11:09:23;6.30;99.90
21592;DHT22;10958;50.892;3.992;2023-03-14T11:11:50;6.40;99.90
21592;DHT22;10958;50.892;3.992;2023-03-14T11:14:27;6.30;99.90
21592;DHT22;10958;50.892;3.992;2023-03-14T11:17:14;6.30;99.90
21592;DHT22;10958;50.892;3.992;2023-03-14T11:25:18;5.90;99.90
21592;DHT22;10958;50.892;3.992;2023-03-14T11:27:55;5.80;99.90
21592;DHT22;10958;50.892;3.992;2023-03-14T11:30:27;5.90;99.90
21592;DHT22;10958;50.892;3.992;2023-03-14T11:32:56;5.80;99.90
21592;DHT22;10958;50.892;3.992;2023-03-14T11:35:30;5.70;99.90
21592;DHT22;10958;50.892;3.992;2023-03-14T11:40:31;5.70;99.90
21592;DHT22;10958;50.892;3.992;2023-03-14T11:43:00;5.80;99.90
21592;DHT22;10958;50.892;3.992;2023-03-14T11:45:38;5.80;99.90
21592;DHT22;10958;50.892;3.992;2023-03-14T11:51:21;6.20;99.90
21592;DHT22;10958;50.892;3.992;2023-03-14T11:54:16;6.30;99.90
21592;DHT22;10958;50.892;3.992;2023-03-14T11:56:57;6.40;99.90
21592;DHT22;10958;50.892;3.992;2023-03-14T12:07:55;6.70;99.90
21592;DHT22;10958;50.892;3.992;2023-03-14T12:10:29;6.80;99.90
21592;DHT22;10958;50.892;3.992;2023-03-14T12:12:57;6.50;99.90
21592;DHT22;10958;50.892;3.992;2023-03-14T12:15:23;6.60;99.90
21592;DHT22;10958;50.892;3.992;2023-03-14T12:17:56;6.50;99.90
21592;DHT22;10958;50.892;3.992;2023-03-14T12:20:26;6.40;99.90
21592;DHT22;10958;50.892;3.992;2023-03-14T12:23:01;6.40;99.90
21592;DHT22;10958;50.892;3.992;2023-03-14T12:25:32;6.40;99.90
21592;DHT22;10958;50.892;3.992;2023-03-14T12:28:31;6.40;99.90
21592;DHT22;10958;50.892;3.992;2023-03-14T12:42:41;7.00;99.90
21592;DHT22;10958;50.892;3.992;2023-03-14T12:45:21;7.10;99.90
21592;DHT22;10958;50.892;3.992;2023-03-14T12:47:52;7.20;99.90
21592;DHT22;10958;50.892;3.992;2023-03-14T12:50:26;7.50;99.90
21592;DHT22;10958;50.892;3.992;2023-03-14T12:53:13;7.50;99.90
21592;DHT22;10958;50.892;3.992;2023-03-14T13:01:23;7.30;99.90
21592;DHT22;10958;50.892;3.992;2023-03-14T13:04:04;7.50;99.90
21592;DHT22;10958;50.892;3.992;2023-03-14T13:09:55;7.40;99.90
21592;DHT22;10958;50.892;3.992;2023-03-14T13:12:28;7.70;99.90
21592;DHT22;10958;50.892;3.992;2023-03-14T13:14:59;7.40;99.90
21592;DHT22;10958;50.892;3.992;2023-03-14T13:17:34;7.40;99.90
21592;DHT22;10958;50.892;3.992;2023-03-14T13:20:05;7.30;99.90
21592;DHT22;10958;50.892;3.992;2023-03-14T13:22:38;7.10;99.90
21592;DHT22;10958;50.892;3.992;2023-03-14T13:25:10;7.00;99.90
21592;DHT22;10958;50.892;3.992;2023-03-14T13:27:38;6.50;99.90
21592;DHT22;10958;50.892;3.992;2023-03-14T13:32:42;6.20;99.90
21592;DHT22;10958;50.892;3.992;2023-03-14T13:35:27;6.20;99.90
21592;DHT22;10958;50.892;3.992;2023-03-14T13:37:59;6.20;99.90
21592;DHT22;10958;50.892;3.992;2023-03-14T13:40:31;6.10;99.90
21592;DHT22;10958;50.892;3.992;2023-03-14T13:45:51;6.40;99.90
21592;DHT22;10958;50.892;3.992;2023-03-14T13:48:17;6.60;99.90
21592;DHT22;10958;50.892;3.992;2023-03-14T13:51:11;6.70;99.90
21592;DHT22;10958;50.892;3.992;2023-03-14T13:53:44;6.90;99.90
21592;DHT22;10958;50.892;3.992;2023-03-14T13:56:11;6.90;99.90
21592;DHT22;10958;50.892;3.992;2023-03-14T13:58:38;7.00;99.90
21592;DHT22;10958;50.892;3.992;2023-03-14T14:03:44;7.20;99.90
21592;DHT22;10958;50.892;3.992;2023-03-14T14:06:31;7.10;99.90
21592;DHT22;10958;50.892;3.992;2023-03-14T14:09:01;7.20;99.90
21592;DHT22;10958;50.892;3.992;2023-03-14T14:17:18;7.60;99.90
21592;DHT22;10958;50.892;3.992;2023-03-14T14:19:45;7.60;99.90
21592;DHT22;10958;50.892;3.992;2023-03-14T14:22:14;7.40;99.90
21592;DHT22;10958;50.892;3.992;2023-03-14T14:24:40;7.30;99.90
21592;DHT22;10958;50.892;3.992;2023-03-14T14:27:18;7.30;99.90
21592;DHT22;10958;50.892;3.992;2023-03-14T14:32:42;6.80;99.90
21592;DHT22;10958;50.892;3.992;2023-03-14T14:35:11;6.60;99.90
21592;DHT22;10958;50.892;3.992;2023-03-14T14:37:48;6.30;99.90
21592;DHT22;10958;50.892;3.992;2023-03-14T14:40:22;6.30;99.90
21592;DHT22;10958;50.892;3.992;2023-03-14T14:42:49;6.10;99.90
21592;DHT22;10958;50.892;3.992;2023-03-14T14:45:23;6.00;99.90
21592;DHT22;10958;50.892;3.992;2023-03-14T14:48:05;6.00;99.90
21592;DHT22;10958;50.892;3.992;2023-03-14T14:50:33;6.20;99.90
21592;DHT22;10958;50.892;3.992;2023-03-14T14:53:03;6.20;99.90
21592;DHT22;10958;50.892;3.992;2023-03-14T14:55:40;6.40;99.90
21592;DHT22;10958;50.892;3.992;2023-03-14T15:01:18;6.80;99.90
21592;DHT22;10958;50.892;3.992;2023-03-14T15:03:47;7.00;99.90
21592;DHT22;10958;50.892;3.992;2023-03-14T15:06:15;6.90;99.90
21592;DHT22;10958;50.892;3.992;2023-03-14T15:08:43;7.00;99.90
21592;DHT22;10958;50.892;3.992;2023-03-14T15:11:16;7.00;99.90
21592;DHT22;10958;50.892;3.992;2023-03-14T15:13:42;7.20;99.90
21592;DHT22;10958;50.892;3.992;2023-03-14T15:16:17;7.20;99.90
21592;DHT22;10958;50.892;3.992;2023-03-14T15:18:44;7.30;99.90
21592;DHT22;10958;50.892;3.992;2023-03-14T15:21:16;7.40;99.90
21592;DHT22;10958;50.892;3.992;2023-03-14T15:23:41;7.30;99.90
21592;DHT22;10958;50.892;3.992;2023-03-14T15:26:15;7.30;99.90
21592;DHT22;10958;50.892;3.992;2023-03-14T15:28:41;7.10;99.90
21592;DHT22;10958;50.892;3.992;2023-03-14T15:31:11;7.10;99.90
21592;DHT22;10958;50.892;3.992;2023-03-14T15:33:39;7.20;99.90
21592;DHT22;10958;50.892;3.992;2023-03-14T15:36:24;7.30;99.90
21592;DHT22;10958;50.892;3.992;2023-03-14T15:38:52;7.30;99.90
21592;DHT22;10958;50.892;3.992;2023-03-14T15:41:21;7.20;99.90
21592;DHT22;10958;50.892;3.992;2023-03-14T15:43:47;6.90;99.90
21592;DHT22;10958;50.892;3.992;2023-03-14T15:46:16;6.70;99.90
21592;DHT22;10958;50.892;3.992;2023-03-14T15:48:44;6.90;99.90
21592;DHT22;10958;50.892;3.992;2023-03-14T15:51:11;7.00;99.90
21592;DHT22;10958;50.892;3.992;2023-03-14T15:53:39;6.80;99.90
21592;DHT22;10958;50.892;3.992;2023-03-14T15:56:07;6.80;99.90
21592;DHT22;10958;50.892;3.992;2023-03-14T15:58:33;6.70;99.90
21592;DHT22;10958;50.892;3.992;2023-03-14T16:01:01;6.70;99.90
21592;DHT22;10958;50.892;3.992;2023-03-14T16:03:28;6.70;99.90
21592;DHT22;10958;50.892;3.992;2023-03-14T16:05:54;6.80;99.90
21592;DHT22;10958;50.892;3.992;2023-03-14T16:08:21;6.80;99.90
21592;DHT22;10958;50.892;3.992;2023-03-14T16:10:46;6.90;99.90
21592;DHT22;10958;50.892;3.992;2023-03-14T16:13:12;7.00;99.90
21592;DHT22;10958;50.892;3.992;2023-03-14T16:15:38;6.90;99.90
21592;DHT22;10958;50.892;3.992;2023-03-14T16:18:04;6.90;99.90
21592;DHT22;10958;50.892;3.992;2023-03-14T16:20:30;6.90;99.90
21592;DHT22;10958;50.892;3.992;2023-03-14T16:22:56;7.10;99.90
21592;DHT22;10958;50.892;3.992;2023-03-14T16:25:22;7.00;99.90
21592;DHT22;10958;50.892;3.992;2023-03-14T16:27:48;7.10;99.90
21592;DHT22;10958;50.892;3.992;2023-03-14T16:30:14;7.20;99.90
21592;DHT22;10958;50.892;3.992;2023-03-14T16:32:40;7.20;99.90
21592;DHT22;10958;50.892;3.992;2023-03-14T16:35:06;7.20;99.90
21592;DHT22;10958;50.892;3.992;2023-03-14T16:37:32;7.20;99.90
21592;DHT22;10958;50.892;3.992;2023-03-14T16:39:57;7.20;99.90
21592;DHT22;10958;50.892;3.992;2023-03-14T16:42:23;7.00;99.90
21592;DHT22;10958;50.892;3.992;2023-03-14T16:44:49;7.00;99.90
21592;DHT22;10958;50.892;3.992;2023-03-14T16:47:15;7.00;99.90
21592;DHT22;10958;50.892;3.992;2023-03-14T16:49:41;7.00;99.90
21592;DHT22;10958;50.892;3.992;2023-03-14T16:52:09;6.90;99.90
21592;DHT22;10958;50.892;3.992;2023-03-14T16:54:36;6.80;99.90
21592;DHT22;10958;50.892;3.992;2023-03-14T16:57:01;6.80;99.90